Time;durP1;ratioP1;P1;durP2;ratioP2;P2;SDS_P1;SDS_P2;PMS_P1;PMS_P2;Temp;Humidity;BMP_temperature;BMP_pressure;BME280_temperature;BME280_humidity;BME280_pressure;Samples;Min_cycle;Max_cycle;Signal;HPM_P1;HPM_P2
2021/11/15 00:01:06;;;;;;;;;;;;;;;12.64;100.00;100158.22;5060944;28;20363;-81
2021/11/15 00:03:34;;;;;;;;;;;;;;;12.59;100.00;100158.66;5044557;28;20274;-82
2021/11/15 00:06:01;;;;;;;;;;;;;;;12.66;100.00;100158.59;5095648;28;19924;-82
2021/11/15 00:08:29;;;;;;;;;;;;;;;12.83;100.00;100159.66;5095815;28;19928;-82
2021/11/15 00:10:56;;;;;;;;;;;;;;;12.71;100.00;100160.97;5095472;28;19947;-81
2021/11/15 00:13:24;;;;;;;;;;;;;;;12.19;100.00;100167.69;5095366;28;19931;-81
2021/11/15 00:15:51;;;;;;;;;;;;;;;11.84;100.00;100167.03;5061121;28;19946;-81
2021/11/15 00:18:18;;;;;;;;;;;;;;;11.49;100.00;100172.72;5095271;28;19924;-81
2021/11/15 00:20:45;;;;;;;;;;;;;;;11.82;100.00;100170.25;5076064;28;19924;-81
2021/11/15 00:23:12;;;;;;;;;;;;;;;11.90;100.00;100155.03;5060549;28;19924;-81
2021/11/15 00:25:40;;;;;;;;;;;;;;;11.81;100.00;100163.06;5077402;28;19935;-81
2021/11/15 00:28:07;;;;;;;;;;;;;;;12.26;100.00;100162.06;5077434;28;20014;-81
2021/11/15 00:30:35;;;;;;;;;;;;;;;12.53;100.00;100156.69;5060644;28;19931;-81
2021/11/15 00:33:02;;;;;;;;;;;;;;;12.03;100.00;100158.16;5076826;28;19924;-81
2021/11/15 00:35:29;;;;;;;;;;;;;;;12.08;100.00;100147.34;5094974;28;19928;-81
2021/11/15 00:37:56;;;;;;;;;;;;;;;11.92;100.00;100151.81;5095029;28;19947;-81
2021/11/15 00:40:24;;;;;;;;;;;;;;;12.21;100.00;100151.25;5076990;28;19952;-81
2021/11/15 00:42:51;;;;;;;;;;;;;;;12.35;100.00;100148.38;5076878;28;19931;-81
2021/11/15 00:45:18;;;;;;;;;;;;;;;12.33;100.00;100142.38;5095053;28;20536;-82
2021/11/15 00:47:45;;;;;;;;;;;;;;;12.38;100.00;100143.97;5094804;28;19924;-81
2021/11/15 00:50:14;;;;;;;;;;;;;;;12.36;100.00;100147.16;5076598;28;19931;-81
2021/11/15 00:52:41;;;;;;;;;;;;;;;12.48;100.00;100152.28;5094945;28;20011;-81
2021/11/15 00:55:08;;;;;;;;;;;;;;;12.53;100.00;100153.88;5076813;28;19946;-81
2021/11/15 00:57:35;;;;;;;;;;;;;;;12.68;100.00;100144.97;5094812;28;19924;-82
2021/11/15 01:00:03;;;;;;;;;;;;;;;12.25;100.00;100143.63;5076319;28;20360;-81
2021/11/15 01:02:30;;;;;;;;;;;;;;;12.26;100.00;100155.63;5059684;28;19931;-81
2021/11/15 01:04:58;;;;;;;;;;;;;;;11.83;100.00;100149.44;5077131;28;20322;-81
2021/11/15 01:07:26;;;;;;;;;;;;;;;12.31;100.00;100150.41;5077024;28;19924;-81
2021/11/15 01:09:53;;;;;;;;;;;;;;;11.79;100.00;100148.66;5076811;28;19924;-82
2021/11/15 01:12:20;;;;;;;;;;;;;;;11.50;100.00;100152.72;5076653;28;19930;-81
2021/11/15 01:14:47;;;;;;;;;;;;;;;11.29;100.00;100152.75;5081192;28;20287;-81
2021/11/15 01:17:14;;;;;;;;;;;;;;;11.51;100.00;100157.09;5114747;28;19949;-81
2021/11/15 01:19:42;;;;;;;;;;;;;;;11.51;100.00;100159.91;5114691;28;19927;-81
2021/11/15 01:22:09;;;;;;;;;;;;;;;11.27;100.00;100151.59;5096837;28;19928;-81
2021/11/15 01:24:37;;;;;;;;;;;;;;;11.76;100.00;100149.47;5096459;28;20004;-81
2021/11/15 01:27:04;;;;;;;;;;;;;;;11.93;100.00;100154.22;5096123;28;19927;-81
2021/11/15 01:29:31;;;;;;;;;;;;;;;11.34;100.00;100143.16;5096563;28;19988;-81
2021/11/15 01:32:00;;;;;;;;;;;;;;;11.27;100.00;100148.78;5095878;28;19924;-81
2021/11/15 01:34:28;;;;;;;;;;;;;;;11.62;100.00;100143.91;5096711;28;19923;-81
2021/11/15 01:36:56;;;;;;;;;;;;;;;12.04;100.00;100140.16;5079699;28;19927;-81
2021/11/15 01:39:24;;;;;;;;;;;;;;;11.81;100.00;100142.66;5096501;28;19924;-81
2021/11/15 01:41:52;;;;;;;;;;;;;;;11.87;100.00;100139.03;5096423;28;19973;-81
2021/11/15 01:44:19;;;;;;;;;;;;;;;12.14;100.00;100145.72;5114415;28;19931;-81
2021/11/15 01:46:46;;;;;;;;;;;;;;;12.23;100.00;100140.44;5114657;28;20358;-81
2021/11/15 01:49:14;;;;;;;;;;;;;;;12.28;100.00;100133.63;5096650;28;19931;-81
2021/11/15 01:51:41;;;;;;;;;;;;;;;12.34;100.00;100140.38;5079537;28;19931;-81
2021/11/15 01:54:08;;;;;;;;;;;;;;;12.37;100.00;100134.75;5096444;28;20014;-81
2021/11/15 01:56:35;;;;;;;;;;;;;;;12.40;100.00;100130.34;5096503;28;19982;-82
2021/11/15 01:59:04;;;;;;;;;;;;;;;12.44;100.00;100126.31;5096636;28;19935;-82
2021/11/15 02:01:31;;;;;;;;;;;;;;;12.51;100.00;100129.06;5114424;28;19962;-82
2021/11/15 02:03:59;;;;;;;;;;;;;;;12.44;100.00;100117.91;5096903;28;19924;-82
2021/11/15 02:06:55;;;;;;;;;;;;;;;12.50;100.00;100124.66;5091836;28;19916;-83
2021/11/15 02:09:22;;;;;;;;;;;;;;;12.52;100.00;100122.25;5090658;28;19986;-83
2021/11/15 02:11:49;;;;;;;;;;;;;;;12.54;100.00;100122.63;5090655;28;19973;-83
2021/11/15 02:14:16;;;;;;;;;;;;;;;12.55;100.00;100118.63;5124232;28;19925;-83
2021/11/15 02:18:48;;;;;;;;;;;;;;;12.61;100.00;100116.97;5091681;28;19939;-83
2021/11/15 02:21:16;;;;;;;;;;;;;;;12.62;100.00;100120.56;5092246;28;19925;-83
2021/11/15 02:23:43;;;;;;;;;;;;;;;12.31;100.00;100116.00;5124904;28;19931;-83
2021/11/15 02:26:12;;;;;;;;;;;;;;;11.59;100.00;100115.88;5091814;28;19931;-83
2021/11/15 02:28:40;;;;;;;;;;;;;;;12.16;100.00;100112.44;5073517;28;19924;-83
2021/11/15 02:31:09;;;;;;;;;;;;;;;12.51;100.00;100117.06;5091819;28;20062;-83
2021/11/15 02:33:36;;;;;;;;;;;;;;;12.66;100.00;100108.09;5090392;28;19931;-83
2021/11/15 02:36:05;;;;;;;;;;;;;;;12.71;100.00;100115.28;5057360;28;19928;-83
2021/11/15 02:38:32;;;;;;;;;;;;;;;12.71;100.00;100112.47;5107169;28;19928;-83
2021/11/15 02:40:59;;;;;;;;;;;;;;;12.69;100.00;100114.91;5090500;28;19924;-83
2021/11/15 02:43:26;;;;;;;;;;;;;;;12.66;100.00;100116.53;5106993;28;19931;-83
2021/11/15 02:45:53;;;;;;;;;;;;;;;12.60;100.00;100104.16;5056543;28;19924;-83
2021/11/15 02:48:21;;;;;;;;;;;;;;;12.53;100.00;100101.41;5124236;28;19930;-83
2021/11/15 02:50:49;;;;;;;;;;;;;;;12.49;100.00;100100.66;5091381;28;19924;-83
2021/11/15 02:53:17;;;;;;;;;;;;;;;12.47;100.00;100096.66;5073377;28;20375;-83
2021/11/15 02:55:44;;;;;;;;;;;;;;;12.43;100.00;100091.06;5091258;28;19924;-83
2021/11/15 02:58:13;;;;;;;;;;;;;;;12.41;100.00;100090.69;5123075;28;19978;-83
2021/11/15 03:00:40;;;;;;;;;;;;;;;12.36;100.00;100079.91;5106775;28;19924;-83
2021/11/15 03:03:08;;;;;;;;;;;;;;;11.89;100.00;100088.22;5089609;28;20378;-83
2021/11/15 03:05:36;;;;;;;;;;;;;;;11.81;100.00;100084.66;5090957;28;20385;-82
2021/11/15 03:08:04;;;;;;;;;;;;;;;11.85;100.00;100085.44;5123902;28;19924;-82
2021/11/15 03:10:31;;;;;;;;;;;;;;;12.19;100.00;100083.63;5089643;28;20368;-82
2021/11/15 03:12:59;;;;;;;;;;;;;;;12.31;100.00;100082.34;5090396;28;19954;-83
2021/11/15 03:15:29;;;;;;;;;;;;;;;12.09;100.00;100078.88;5089517;28;19947;-83
2021/11/15 03:17:59;;;;;;;;;;;;;;;12.01;100.00;100094.13;5123300;28;19967;-83
2021/11/15 03:20:27;;;;;;;;;;;;;;;11.89;100.00;100097.41;5123412;28;19931;-82
2021/11/15 03:22:54;;;;;;;;;;;;;;;12.22;100.00;100088.41;5089405;28;20372;-82
2021/11/15 03:25:29;;;;;;;;;;;;;;;12.40;100.00;100093.91;5072366;28;19974;-82
2021/11/15 03:27:56;;;;;;;;;;;;;;;12.36;100.00;100085.50;5122115;28;20338;-82
2021/11/15 03:30:25;;;;;;;;;;;;;;;12.33;100.00;100080.72;5075501;28;19925;-83
2021/11/15 03:32:52;;;;;;;;;;;;;;;12.35;100.00;100081.13;5076943;28;20356;-83
2021/11/15 03:35:20;;;;;;;;;;;;;;;12.22;100.00;100082.78;5075746;28;20368;-83
2021/11/15 03:37:47;;;;;;;;;;;;;;;11.92;100.00;100074.19;5075446;28;20018;-83
2021/11/15 03:40:19;;;;;;;;;;;;;;;12.08;100.00;100077.31;5076708;28;19928;-83
2021/11/15 03:42:48;;;;;;;;;;;;;;;12.26;100.00;100077.97;5058930;28;19975;-83
2021/11/15 03:45:16;;;;;;;;;;;;;;;12.28;100.00;100074.78;5075162;28;19924;-83
2021/11/15 03:47:44;;;;;;;;;;;;;;;12.34;100.00;100073.13;5075675;28;19924;-83
2021/11/15 03:50:11;;;;;;;;;;;;;;;12.31;100.00;100069.13;5075577;28;20015;-83
2021/11/15 03:52:39;;;;;;;;;;;;;;;12.36;100.00;100065.88;5092268;28;19928;-83
2021/11/15 03:55:09;;;;;;;;;;;;;;;12.36;100.00;100065.09;5075322;28;19963;-83
2021/11/15 03:57:37;;;;;;;;;;;;;;;12.39;100.00;100070.66;5076347;28;20023;-82
2021/11/15 04:00:07;;;;;;;;;;;;;;;12.37;100.00;100066.69;5075259;28;19929;-82
2021/11/15 04:02:41;;;;;;;;;;;;;;;12.13;100.00;100062.84;5076518;28;19925;-83
2021/11/15 04:05:09;;;;;;;;;;;;;;;11.97;100.00;100070.16;5092168;28;19925;-83
2021/11/15 04:07:39;;;;;;;;;;;;;;;12.12;100.00;100071.66;5058568;28;19925;-83
2021/11/15 04:10:09;;;;;;;;;;;;;;;12.17;100.00;100074.84;5058202;28;20288;-83
2021/11/15 04:12:37;;;;;;;;;;;;;;;12.27;100.00;100071.16;5075200;28;19931;-83
2021/11/15 04:15:10;;;;;;;;;;;;;;;12.28;100.00;100064.34;5042729;28;20418;-83
2021/11/15 04:17:38;;;;;;;;;;;;;;;12.28;100.00;100064.34;5091289;28;19930;-83
2021/11/15 04:20:07;;;;;;;;;;;;;;;12.37;100.00;100061.88;5091638;28;19928;-83
2021/11/15 04:22:35;;;;;;;;;;;;;;;12.20;100.00;100062.81;5108080;28;20384;-83
2021/11/15 04:25:05;;;;;;;;;;;;;;;12.40;100.00;100061.03;5075602;28;19931;-83
2021/11/15 04:27:33;;;;;;;;;;;;;;;12.40;100.00;100061.03;5108295;28;19924;-83
2021/11/15 04:30:15;;;;;;;;;;;;;;;12.17;100.00;100068.44;5077778;27;2158467;-83
2021/11/15 04:32:43;;;;;;;;;;;;;;;11.92;100.00;100062.19;5134798;27;19965;-83
2021/11/15 04:35:11;;;;;;;;;;;;;;;11.83;100.00;100065.44;5134553;27;19924;-82
2021/11/15 04:37:39;;;;;;;;;;;;;;;12.07;100.00;100070.09;5134727;27;20402;-82
2021/11/15 04:40:06;;;;;;;;;;;;;;;12.17;100.00;100066.44;5117123;27;19924;-83
2021/11/15 04:42:34;;;;;;;;;;;;;;;12.24;100.00;100063.56;5134477;27;19930;-83
2021/11/15 04:45:02;;;;;;;;;;;;;;;12.25;100.00;100072.78;5117508;27;19923;-83
2021/11/15 04:47:29;;;;;;;;;;;;;;;12.21;100.00;100070.00;5117831;27;19930;-83
2021/11/15 04:49:56;;;;;;;;;;;;;;;12.17;100.00;100063.63;5153315;27;19931;-83
2021/11/15 04:52:24;;;;;;;;;;;;;;;11.62;100.00;100059.94;5134447;27;19953;-83
2021/11/15 04:54:51;;;;;;;;;;;;;;;11.86;100.00;100056.22;5152746;27;19973;-83
2021/11/15 04:57:19;;;;;;;;;;;;;;;12.05;100.00;100052.09;5134720;27;19988;-82
2021/11/15 04:59:47;;;;;;;;;;;;;;;11.99;100.00;100050.94;5117352;27;20003;-83
2021/11/15 05:02:14;;;;;;;;;;;;;;;11.93;100.00;100053.38;5152699;27;20010;-83
2021/11/15 05:04:42;;;;;;;;;;;;;;;12.14;100.00;100061.66;5117455;27;20460;-83
2021/11/15 05:07:09;;;;;;;;;;;;;;;12.19;100.00;100050.00;5134540;27;19924;-83
2021/11/15 05:09:36;;;;;;;;;;;;;;;11.81;100.00;100055.84;5099762;27;20365;-83
2021/11/15 05:12:04;;;;;;;;;;;;;;;11.98;100.00;100058.53;5152332;27;19927;-83
2021/11/15 05:14:31;;;;;;;;;;;;;;;12.08;100.00;100052.09;5133956;27;20298;-83
2021/11/15 05:16:58;;;;;;;;;;;;;;;12.22;100.00;100049.16;5116976;27;19923;-83
2021/11/15 05:19:25;;;;;;;;;;;;;;;12.19;100.00;100052.78;5133933;27;19930;-83
2021/11/15 05:21:52;;;;;;;;;;;;;;;12.17;100.00;100052.44;5152186;27;19923;-83
2021/11/15 05:24:20;;;;;;;;;;;;;;;12.01;100.00;100052.13;5133538;27;19930;-83
2021/11/15 05:26:47;;;;;;;;;;;;;;;12.01;100.00;100051.34;5117045;27;20018;-83
2021/11/15 05:29:14;;;;;;;;;;;;;;;12.14;100.00;100044.84;5152068;27;19924;-83
2021/11/15 05:31:41;;;;;;;;;;;;;;;12.19;100.00;100047.19;5133565;27;19923;-83
2021/11/15 05:34:09;;;;;;;;;;;;;;;12.22;100.00;100043.56;5133741;27;20495;-83
2021/11/15 05:36:36;;;;;;;;;;;;;;;12.27;100.00;100042.34;5133579;27;19927;-83
2021/11/15 05:39:04;;;;;;;;;;;;;;;12.30;100.00;100045.13;5133619;27;20266;-83
2021/11/15 05:41:31;;;;;;;;;;;;;;;12.24;100.00;100052.38;5103093;27;20378;-83
2021/11/15 05:43:59;;;;;;;;;;;;;;;12.29;100.00;100049.13;5103033;27;19923;-83
2021/11/15 05:46:26;;;;;;;;;;;;;;;12.32;100.00;100048.31;5119952;27;20301;-83
2021/11/15 05:48:53;;;;;;;;;;;;;;;12.33;100.00;100038.69;5119540;27;20022;-83
2021/11/15 05:51:20;;;;;;;;;;;;;;;12.33;100.00;100041.50;5102257;27;19923;-83
2021/11/15 05:53:47;;;;;;;;;;;;;;;12.37;100.00;100045.06;5119895;27;20449;-83
2021/11/15 05:56:14;;;;;;;;;;;;;;;12.39;100.00;100045.44;5137817;27;19923;-83
2021/11/15 05:58:42;;;;;;;;;;;;;;;12.39;100.00;100042.66;5137761;27;19923;-83
2021/11/15 06:01:09;;;;;;;;;;;;;;;12.33;100.00;100044.28;5119323;27;19924;-83
2021/11/15 06:03:36;;;;;;;;;;;;;;;12.35;100.00;100046.69;5137701;27;19923;-83
2021/11/15 06:06:03;;;;;;;;;;;;;;;12.37;100.00;100056.25;5119088;27;19927;-83
2021/11/15 06:08:30;;;;;;;;;;;;;;;12.20;100.00;100045.19;5085316;27;20026;-83
2021/11/15 06:10:59;;;;;;;;;;;;;;;12.25;100.00;100042.75;5137736;27;19924;-83
2021/11/15 06:13:26;;;;;;;;;;;;;;;12.25;100.00;100048.34;5119214;27;19970;-83
2021/11/15 06:15:53;;;;;;;;;;;;;;;12.22;100.00;100043.56;5119268;27;19934;-83
2021/11/15 06:18:20;;;;;;;;;;;;;;;12.25;100.00;100042.75;5102437;27;20303;-83
2021/11/15 06:20:47;;;;;;;;;;;;;;;12.22;100.00;100043.56;5118923;27;19930;-83
2021/11/15 06:23:14;;;;;;;;;;;;;;;12.09;100.00;100053.69;5119250;27;19930;-83
2021/11/15 06:25:43;;;;;;;;;;;;;;;11.99;100.00;100054.56;5137244;27;19971;-82
2021/11/15 06:28:10;;;;;;;;;;;;;;;11.67;100.00;100056.72;5118684;27;19930;-83
2021/11/15 06:30:37;;;;;;;;;;;;;;;11.43;100.00;100062.38;5136979;27;19924;-83
2021/11/15 06:33:06;;;;;;;;;;;;;;;11.73;100.00;100055.09;5068680;27;20017;-83
2021/11/15 06:35:33;;;;;;;;;;;;;;;11.81;100.00;100065.06;5136812;27;20022;-83
2021/11/15 06:38:00;;;;;;;;;;;;;;;11.87;100.00;100059.81;5118686;27;19934;-83
2021/11/15 06:40:27;;;;;;;;;;;;;;;11.83;100.00;100059.81;5136998;27;19924;-83
2021/11/15 06:42:54;;;;;;;;;;;;;;;11.81;100.00;100056.66;5118572;27;20007;-83
2021/11/15 06:45:22;;;;;;;;;;;;;;;11.71;100.00;100059.47;5102191;27;19984;-82
2021/11/15 06:47:49;;;;;;;;;;;;;;;11.68;100.00;100058.31;5118814;27;19930;-83
2021/11/15 06:50:18;;;;;;;;;;;;;;;11.66;100.00;100055.09;5118389;27;19965;-83
2021/11/15 06:52:46;;;;;;;;;;;;;;;11.52;100.00;100066.34;5135638;27;19924;-82
2021/11/15 06:55:14;;;;;;;;;;;;;;;11.23;100.00;100064.84;5136732;27;19934;-82
2021/11/15 06:57:42;;;;;;;;;;;;;;;11.32;100.00;100072.81;5118482;27;19924;-82
2021/11/15 07:00:16;;;;;;;;;;;;;;;11.37;100.00;100081.59;5118314;27;19923;-83
2021/11/15 07:02:45;;;;;;;;;;;;;;;11.52;100.00;100079.53;5119261;27;19923;-82
2021/11/15 07:05:15;;;;;;;;;;;;;;;11.55;100.00;100085.13;5118314;27;19968;-83
2021/11/15 07:07:42;;;;;;;;;;;;;;;11.66;100.00;100083.09;5136904;27;19984;-82
2021/11/15 07:10:11;;;;;;;;;;;;;;;11.73;100.00;100083.09;5118001;27;19930;-82
2021/11/15 07:12:38;;;;;;;;;;;;;;;11.74;100.00;100084.69;5099707;27;19992;-80
2021/11/15 07:15:06;;;;;;;;;;;;;;;11.60;100.00;100084.69;5112051;28;20286;-81
2021/11/15 07:17:33;;;;;;;;;;;;;;;11.42;100.00;100078.38;5118037;27;20019;-80
2021/11/15 07:20:02;;;;;;;;;;;;;;;11.17;100.00;100091.63;5119699;27;20306;-80
2021/11/15 07:22:30;;;;;;;;;;;;;;;10.77;100.00;100104.06;5114388;28;19924;-80
2021/11/15 07:24:57;;;;;;;;;;;;;;;10.82;100.00;100116.84;5123529;27;19923;-80
2021/11/15 07:27:25;;;;;;;;;;;;;;;11.18;100.00;100115.59;5123559;27;19931;-80
2021/11/15 07:29:52;;;;;;;;;;;;;;;11.03;100.00;100114.03;5101317;28;20057;-80
2021/11/15 07:32:20;;;;;;;;;;;;;;;10.61;100.00;100105.66;5104896;27;19928;-80
2021/11/15 07:34:48;;;;;;;;;;;;;;;10.61;100.00;100128.03;5123763;27;19923;-80
2021/11/15 07:37:15;;;;;;;;;;;;;;;10.67;100.00;100120.84;5105239;27;19923;-79
2021/11/15 07:39:42;;;;;;;;;;;;;;;11.09;100.00;100120.03;5085526;28;19935;-79
2021/11/15 07:42:10;;;;;;;;;;;;;;;11.40;100.00;100119.97;5114746;28;19924;-80
2021/11/15 07:44:38;;;;;;;;;;;;;;;11.62;100.00;100121.53;5110146;27;19924;-80
2021/11/15 07:47:05;;;;;;;;;;;;;;;11.68;100.00;100119.91;5093588;28;19959;-80
2021/11/15 07:49:32;;;;;;;;;;;;;;;11.75;100.00;100117.09;5124361;27;19924;-83
2021/11/15 07:52:00;;;;;;;;;;;;;;;11.73;100.00;100116.69;5135532;27;19934;-83
2021/11/15 07:54:27;;;;;;;;;;;;;;;11.80;100.00;100122.25;5117013;27;19927;-79
2021/11/15 07:56:55;;;;;;;;;;;;;;;11.86;100.00;100129.03;5135218;27;20375;-79
2021/11/15 07:59:22;;;;;;;;;;;;;;;11.90;100.00;100123.41;5128892;27;20312;-79
2021/11/15 08:01:50;;;;;;;;;;;;;;;11.98;100.00;100128.56;5113390;28;20363;-79
2021/11/15 08:04:17;;;;;;;;;;;;;;;12.04;100.00;100126.16;5095930;28;20304;-79
2021/11/15 08:06:45;;;;;;;;;;;;;;;12.08;100.00;100119.31;5120151;27;19927;-81
2021/11/15 08:09:12;;;;;;;;;;;;;;;12.09;100.00;100123.72;5122251;27;20323;-82
2021/11/15 08:11:42;;;;;;;;;;;;;;;12.17;100.00;100124.47;5108615;28;19924;-81
2021/11/15 08:14:09;;;;;;;;;;;;;;;12.20;100.00;100124.47;5099359;28;20018;-81
2021/11/15 08:16:39;;;;;;;;;;;;;;;12.18;100.00;100121.25;5120050;27;20084;-81
2021/11/15 08:19:07;;;;;;;;;;;;;;;12.27;100.00;100116.00;5114373;28;20022;-81
2021/11/15 08:21:34;;;;;;;;;;;;;;;12.33;100.00;100117.16;5117770;27;20071;-81
2021/11/15 08:24:17;;;;;;;;;;;;;;;12.46;100.00;100121.06;5092756;28;19931;-81
2021/11/15 08:26:57;;;;;;;;;;;;;;;12.49;100.00;100125.88;5109657;28;20432;-82
2021/11/15 08:29:25;;;;;;;;;;;;;;;12.49;100.00;100120.28;5073630;28;19931;-82
2021/11/15 08:31:54;;;;;;;;;;;;;;;12.55;100.00;100113.03;5092291;28;19935;-83
2021/11/15 08:34:22;;;;;;;;;;;;;;;12.28;100.00;100120.38;5110327;28;19924;-84
2021/11/15 08:36:49;;;;;;;;;;;;;;;12.07;100.00;100125.34;5112020;28;19927;-84
2021/11/15 08:39:19;;;;;;;;;;;;;;;11.38;100.00;100130.75;5111830;28;19955;-85
2021/11/15 08:41:48;;;;;;;;;;;;;;;11.40;100.00;100125.56;5112953;28;20019;-85
2021/11/15 08:44:17;;;;;;;;;;;;;;;11.95;100.00;100123.78;5062641;28;19928;-80
2021/11/15 08:46:45;;;;;;;;;;;;;;;12.45;100.00;100110.25;5093227;28;19934;-83
2021/11/15 08:49:14;;;;;;;;;;;;;;;12.25;100.00;100115.59;5092773;28;19935;-82
2021/11/15 08:51:42;;;;;;;;;;;;;;;11.92;100.00;100124.59;5094060;28;19924;-82
2021/11/15 08:54:14;;;;;;;;;;;;;;;12.16;100.00;100118.06;5109878;28;19967;-83
2021/11/15 08:56:49;;;;;;;;;;;;;;;12.56;100.00;100111.81;5109034;28;19924;-82
2021/11/15 08:59:36;;;;;;;;;;;;;;;12.66;100.00;100113.72;5093069;28;19962;-81
2021/11/15 09:02:03;;;;;;;;;;;;;;;12.72;100.00;100111.28;5092707;28;19928;-82
2021/11/15 09:04:30;;;;;;;;;;;;;;;13.05;100.00;100112.63;5094107;28;19950;-82
2021/11/15 09:06:57;;;;;;;;;;;;;;;13.10;100.00;100115.00;5093804;28;20401;-84
2021/11/15 09:09:28;;;;;;;;;;;;;;;13.16;100.00;100110.53;5093549;28;19928;-84
2021/11/15 09:11:57;;;;;;;;;;;;;;;13.29;100.00;100111.56;5075714;28;19924;-84
2021/11/15 09:14:25;;;;;;;;;;;;;;;13.36;100.00;100125.56;5093204;28;19928;-84
2021/11/15 09:16:52;;;;;;;;;;;;;;;13.52;100.00;100117.34;5095142;28;19924;-84
2021/11/15 09:19:20;;;;;;;;;;;;;;;13.56;100.00;100116.09;5112157;28;19924;-84
2021/11/15 09:21:48;;;;;;;;;;;;;;;13.70;100.00;100112.31;5096609;28;19924;-84
2021/11/15 09:24:15;;;;;;;;;;;;;;;13.56;100.00;100120.91;5078323;28;20396;-84
2021/11/15 09:26:44;;;;;;;;;;;;;;;13.36;100.00;100120.72;5095175;28;19930;-84
2021/11/15 09:29:12;;;;;;;;;;;;;;;13.24;100.00;100126.84;5094496;28;19924;-84
2021/11/15 09:31:39;;;;;;;;;;;;;;;13.49;100.00;100121.81;5078354;28;19924;-84
2021/11/15 09:34:06;;;;;;;;;;;;;;;13.80;100.00;100117.00;5095075;28;19986;-84
2021/11/15 09:36:34;;;;;;;;;;;;;;;13.68;100.00;100104.31;5094837;28;19947;-84
2021/11/15 09:39:02;;;;;;;;;;;;;;;13.82;100.00;100106.16;5111792;28;19924;-84
2021/11/15 09:41:30;;;;;;;;;;;;;;;14.03;100.00;100103.06;5078112;28;19946;-84
2021/11/15 09:43:57;;;;;;;;;;;;;;;13.75;100.00;100100.63;5077602;28;20003;-84
2021/11/15 09:46:26;;;;;;;;;;;;;;;13.72;100.00;100101.47;5095929;28;19950;-84
2021/11/15 09:48:59;;;;;;;;;;;;;;;14.05;100.00;100104.25;5077783;28;19924;-84
2021/11/15 09:51:26;;;;;;;;;;;;;;;14.07;100.00;100101.03;5077642;28;19924;-84
2021/11/15 09:53:54;;;;;;;;;;;;;;;14.06;100.00;100107.84;5094499;28;19931;-84
2021/11/15 09:56:23;;;;;;;;;;;;;;;14.09;100.00;100104.19;5094342;28;20287;-84
2021/11/15 09:58:50;;;;;;;;;;;;;;;14.06;100.00;100105.03;5095362;28;19924;-84
2021/11/15 10:01:17;;;;;;;;;;;;;;;14.18;100.00;100105.25;5077365;28;19967;-84
2021/11/15 10:03:44;;;;;;;;;;;;;;;14.31;100.00;100111.16;5111291;28;19951;-84
2021/11/15 10:06:12;;;;;;;;;;;;;;;14.39;100.00;100107.78;5077758;28;20014;-84
2021/11/15 10:08:46;;;;;;;;;;;;;;;14.48;100.00;100110.06;5095534;28;19928;-84
2021/11/15 10:11:14;;;;;;;;;;;;;;;14.50;100.00;100107.63;5077611;28;20016;-84
2021/11/15 10:13:41;;;;;;;;;;;;;;;14.33;100.00;100108.69;5093938;28;20440;-84
2021/11/15 10:16:16;;;;;;;;;;;;;;;13.93;100.00;100112.44;5077415;28;19931;-84
2021/11/15 10:18:43;;;;;;;;;;;;;;;13.92;100.00;100105.22;5077479;28;20204;-84
2021/11/15 10:21:10;;;;;;;;;;;;;;;14.00;100.00;100103.91;5095219;28;20402;-84
2021/11/15 10:23:37;;;;;;;;;;;;;;;14.31;100.00;100099.91;5094044;28;19924;-84
2021/11/15 10:26:14;;;;;;;;;;;;;;;14.35;100.00;100100.63;5094926;28;19931;-84
2021/11/15 10:28:42;;;;;;;;;;;;;;;14.13;100.00;100104.94;5060451;28;19947;-84
2021/11/15 10:31:26;;;;;;;;;;;;;;;13.89;100.00;100100.44;5093715;28;19925;-84
2021/11/15 10:33:53;;;;;;;;;;;;;;;13.89;100.00;100111.66;5077000;28;20089;-84
2021/11/15 10:36:41;;;;;;;;;;;;;;;14.31;100.00;100108.34;5094897;28;19924;-84
2021/11/15 10:39:09;;;;;;;;;;;;;;;14.71;100.00;100112.91;5093770;28;20398;-84
2021/11/15 10:41:36;;;;;;;;;;;;;;;14.93;100.00;100108.56;5093528;28;19951;-84
2021/11/15 10:44:12;;;;;;;;;;;;;;;15.10;100.00;100110.25;5077020;28;19973;-84
2021/11/15 10:46:41;;;;;;;;;;;;;;;15.21;100.00;100102.41;5093512;28;19924;-84
2021/11/15 10:49:10;;;;;;;;;;;;;;;15.36;100.00;100106.56;5060044;28;19925;-84
2021/11/15 10:51:47;;;;;;;;;;;;;;;15.35;100.00;100107.78;5076571;28;20363;-84
2021/11/15 10:54:32;;;;;;;;;;;;;;;15.23;100.00;100111.22;5093386;28;20336;-84
2021/11/15 10:57:14;;;;;;;;;;;;;;;15.30;100.00;100105.47;5093236;28;19928;-84
2021/11/15 10:59:42;;;;;;;;;;;;;;;15.36;100.00;100112.19;5076535;28;19928;-84
2021/11/15 11:02:44;;;;;;;;;;;;;;;15.47;100.00;100098.72;5093228;28;20367;-84
2021/11/15 11:05:19;;;;;;;;;;;;;;;14.55;100.00;100104.34;5054812;28;19952;-84
2021/11/15 11:07:49;;;;;;;;;;;;;;;14.60;100.00;100101.03;5093219;28;19924;-84
2021/11/15 11:10:18;;;;;;;;;;;;;;;14.74;100.00;100095.19;5075803;28;19924;-84
2021/11/15 11:12:56;;;;;;;;;;;;;;;15.03;100.00;100087.84;5092908;28;19934;-84
2021/11/15 11:15:33;;;;;;;;;;;;;;;15.55;100.00;100091.75;5093076;28;19985;-84
2021/11/15 11:18:13;;;;;;;;;;;;;;;15.70;100.00;100078.94;5093013;28;20356;-84
2021/11/15 11:26:19;;;;;;;;;;;;;;;15.86;100.00;100070.56;5075775;28;20422;-84
2021/11/15 11:28:54;;;;;;;;;;;;;;;15.65;100.00;100070.19;5059206;28;19931;-84
2021/11/15 11:31:22;;;;;;;;;;;;;;;15.58;100.00;100067.53;5075790;28;20015;-84
2021/11/15 11:33:49;;;;;;;;;;;;;;;15.43;100.00;100061.41;5075742;28;19963;-84
2021/11/15 11:36:19;;;;;;;;;;;;;;;15.52;100.00;100058.00;5109531;28;19955;-84
2021/11/15 11:38:48;;;;;;;;;;;;;;;15.72;100.00;100050.34;5088619;28;19927;-84
2021/11/15 11:41:17;;;;;;;;;;;;;;;15.97;100.00;100051.38;5075240;28;19924;-84
2021/11/15 11:43:45;;;;;;;;;;;;;;;16.01;100.00;100043.63;5075599;28;19925;-84
2021/11/15 11:46:14;;;;;;;;;;;;;;;16.14;100.00;100036.13;5059249;28;19930;-84
2021/11/15 11:48:45;;;;;;;;;;;;;;;15.83;100.00;100046.06;5092410;28;19924;-84
2021/11/15 11:51:13;;;;;;;;;;;;;;;16.12;100.00;100043.41;5092294;28;19924;-84
2021/11/15 11:53:40;;;;;;;;;;;;;;;16.19;100.00;100046.84;5092275;28;19931;-84
2021/11/15 11:56:14;;;;;;;;;;;;;;;16.34;100.00;100043.69;5092368;28;20008;-84
2021/11/15 11:58:45;;;;;;;;;;;;;;;16.37;100.00;100046.44;5092395;28;19924;-84
2021/11/15 12:01:21;;;;;;;;;;;;;;;15.68;100.00;100053.22;5075613;28;19930;-84
2021/11/15 12:04:08;;;;;;;;;;;;;;;15.78;100.00;100045.78;5075448;28;20345;-84
2021/11/15 12:06:36;;;;;;;;;;;;;;;16.25;100.00;100027.41;5092159;28;19928;-84
2021/11/15 12:09:04;;;;;;;;;;;;;;;15.88;100.00;100031.47;5093085;28;20371;-84
2021/11/15 12:11:33;;;;;;;;;;;;;;;15.66;100.00;100027.50;5058491;28;19924;-84
2021/11/15 12:14:00;;;;;;;;;;;;;;;14.62;100.00;100030.28;5075370;28;19929;-84
2021/11/15 12:16:46;;;;;;;;;;;;;;;15.15;100.00;100036.56;5058573;28;19947;-84
2021/11/15 12:19:13;;;;;;;;;;;;;;;14.56;100.00;100038.44;5058700;28;19924;-84
2021/11/15 12:21:40;;;;;;;;;;;;;;;15.06;100.00;100039.16;5075360;28;20303;-84
2021/11/15 12:24:15;;;;;;;;;;;;;;;15.12;100.00;100053.50;5091779;28;19947;-84
2021/11/15 12:26:44;;;;;;;;;;;;;;;15.36;100.00;100038.97;5093166;28;19924;-84
2021/11/15 12:29:16;;;;;;;;;;;;;;;15.40;100.00;100039.75;5091831;28;19925;-84
2021/11/15 12:31:43;;;;;;;;;;;;;;;15.30;100.00;100032.25;5092885;28;19931;-84
2021/11/15 12:34:15;;;;;;;;;;;;;;;15.34;100.00;100044.22;5075587;28;19924;-84
2021/11/15 12:36:43;;;;;;;;;;;;;;;15.82;100.00;100030.38;5093014;28;19925;-84
2021/11/15 12:39:12;;;;;;;;;;;;;;;16.03;100.00;100024.28;5074942;28;19928;-84
2021/11/15 12:41:40;;;;;;;;;;;;;;;15.20;100.00;100024.00;5075002;28;19931;-84